Time;durP1;ratioP1;P1;durP2;ratioP2;P2;SDS_P1;SDS_P2;PMS_P1;PMS_P2;Temp;Humidity;BMP_temperature;BMP_pressure;BME280_temperature;BME280_humidity;BME280_pressure;Samples;Min_cycle;Max_cycle;Signal;HPM_P1;HPM_P2
2024/01/08 00:01:40;;;;;;;1.17;0.52;;;-0.40;99.90;;;;;;5084781;28;20043;-77
2024/01/08 00:04:09;;;;;;;0.08;0.08;;;-0.40;1.00;;;;;;5086204;28;20040;-78
2024/01/08 00:06:35;;;;;;;0.17;0.17;;;-0.40;1.00;;;;;;5080807;28;20043;-77
2024/01/08 00:09:03;;;;;;;0.20;0.20;;;-0.30;99.90;;;;;;5067468;28;20039;-77
2024/01/08 00:11:29;;;;;;;0.10;0.10;;;-0.30;99.90;;;;;;5083678;28;20032;-77
2024/01/08 00:13:55;;;;;;;0.10;0.10;;;-0.30;1.00;;;;;;5068589;28;20031;-75
2024/01/08 00:16:21;;;;;;;0.50;0.40;;;-0.30;1.00;;;;;;5081610;28;20301;-77
2024/01/08 00:18:48;;;;;;;0.00;0.00;;;-0.30;1.00;;;;;;5079847;28;20484;-78
2024/01/08 00:21:14;;;;;;;0.00;0.00;;;-0.40;1.00;;;;;;5079824;28;20198;-78
2024/01/08 00:23:40;;;;;;;0.10;0.10;;;-0.30;1.00;;;;;;5083571;28;20048;-77
2024/01/08 00:26:06;;;;;;;0.03;0.03;;;-0.40;1.00;;;;;;5080505;28;20032;-77
2024/01/08 00:28:32;;;;;;;0.00;0.00;;;-0.30;1.00;;;;;;5081928;28;20025;-78
2024/01/08 00:30:58;;;;;;;0.20;0.20;;;-0.30;1.00;;;;;;5077719;28;20032;-75
2024/01/08 00:33:24;;;;;;;0.10;0.10;;;-0.30;1.00;;;;;;5079781;28;20032;-77
2024/01/08 00:35:52;;;;;;;0.73;0.73;;;-0.30;1.00;;;;;;5081520;28;20055;-78
2024/01/08 00:38:18;;;;;;;0.20;0.20;;;-0.30;1.00;;;;;;5080548;28;20032;-78
2024/01/08 00:40:44;;;;;;;0.20;0.20;;;-0.30;1.00;;;;;;5080486;28;20033;-79
2024/01/08 00:43:11;;;;;;;0.00;0.00;;;-0.30;1.00;;;;;;5083350;28;20043;-78
2024/01/08 00:45:37;;;;;;;0.00;0.00;;;-0.30;1.00;;;;;;5079813;28;20831;-76
2024/01/08 00:48:03;;;;;;;0.10;0.10;;;-0.30;1.00;;;;;;5081120;28;20390;-77
2024/01/08 00:50:29;;;;;;;0.10;0.10;;;-0.30;1.00;;;;;;5079575;28;20040;-78
2024/01/08 00:52:55;;;;;;;0.10;0.10;;;-0.30;1.00;;;;;;5080040;28;20032;-75
2024/01/08 00:55:22;;;;;;;0.10;0.10;;;-0.30;1.00;;;;;;5076652;28;20047;-78
2024/01/08 00:57:48;;;;;;;0.00;0.00;;;-0.30;1.00;;;;;;5079245;28;20040;-78
2024/01/08 01:00:14;;;;;;;0.10;0.10;;;-0.30;1.00;;;;;;5081105;28;20037;-77
2024/01/08 01:02:40;;;;;;;0.00;0.00;;;-0.20;1.00;;;;;;5081386;28;20043;-77
2024/01/08 01:05:07;;;;;;;0.30;0.30;;;-0.30;1.00;;;;;;5076226;28;20469;-78
2024/01/08 01:07:33;;;;;;;0.00;0.00;;;-0.20;1.00;;;;;;5079926;28;20028;-77
2024/01/08 01:09:59;;;;;;;0.28;0.20;;;-0.20;1.00;;;;;;5077836;28;20039;-77
2024/01/08 01:12:25;;;;;;;0.10;0.10;;;-0.30;1.00;;;;;;5080115;28;20039;-77
2024/01/08 01:14:51;;;;;;;0.13;0.13;;;-0.20;1.00;;;;;;5083928;28;20027;-77
2024/01/08 01:17:17;;;;;;;0.00;0.00;;;-0.20;1.00;;;;;;5077321;28;20474;-77
2024/01/08 01:19:44;;;;;;;0.10;0.10;;;-0.20;1.00;;;;;;5079885;28;20040;-78
2024/01/08 01:22:10;;;;;;;0.30;0.30;;;-0.20;1.00;;;;;;5078280;28;20052;-78
2024/01/08 01:24:36;;;;;;;0.25;0.25;;;-0.20;1.00;;;;;;5080305;28;20493;-78
2024/01/08 01:27:02;;;;;;;0.13;0.13;;;-0.20;1.00;;;;;;5076330;28;20028;-78
2024/01/08 01:29:29;;;;;;;0.10;0.10;;;-0.20;1.00;;;;;;5069086;28;20032;-78
2024/01/08 01:31:55;;;;;;;0.28;0.28;;;-0.20;1.00;;;;;;5078749;28;20043;-76
2024/01/08 01:34:21;;;;;;;0.10;0.10;;;-0.20;1.00;;;;;;5080603;28;20032;-77
2024/01/08 01:36:48;;;;;;;0.10;0.10;;;-0.20;1.00;;;;;;5074000;28;20048;-76
2024/01/08 01:39:15;;;;;;;0.10;0.10;;;-0.20;1.00;;;;;;5063671;28;20208;-76
2024/01/08 01:41:42;;;;;;;0.08;0.08;;;-0.20;1.00;;;;;;5079268;28;20052;-75
2024/01/08 01:44:08;;;;;;;0.20;0.20;;;-0.20;1.00;;;;;;5078721;28;20051;-77
2024/01/08 01:46:45;;;;;;;0.10;0.10;;;-0.10;1.00;;;;;;5076586;28;20043;-78
2024/01/08 01:49:13;;;;;;;0.10;0.10;;;-0.20;1.00;;;;;;5078531;28;20037;-78
2024/01/08 01:51:44;;;;;;;0.03;0.03;;;-0.20;1.00;;;;;;5080775;28;20047;-77
2024/01/08 01:54:15;;;;;;;0.10;0.10;;;-0.20;1.00;;;;;;5080085;28;20020;-78
2024/01/08 01:56:43;;;;;;;0.45;0.45;;;-0.20;1.00;;;;;;5077125;28;20461;-76
2024/01/08 01:59:11;;;;;;;0.10;0.10;;;-0.20;1.00;;;;;;5075916;28;20496;-78
2024/01/08 02:01:37;;;;;;;0.30;0.30;;;-0.20;1.00;;;;;;5081053;28;20464;-77
2024/01/08 02:04:03;;;;;;;0.20;0.20;;;-0.20;1.00;;;;;;5079406;28;20377;-78
2024/01/08 02:06:30;;;;;;;0.10;0.10;;;-0.10;1.00;;;;;;5076173;28;20032;-77
2024/01/08 02:08:56;;;;;;;0.17;0.17;;;-0.10;1.00;;;;;;5061903;28;20040;-76
2024/01/08 02:11:22;;;;;;;0.00;0.00;;;-0.10;1.00;;;;;;5082100;28;20040;-78
2024/01/08 02:13:48;;;;;;;0.10;0.10;;;-0.10;1.00;;;;;;5080577;28;20052;-77
2024/01/08 02:16:17;;;;;;;0.10;0.10;;;-0.10;1.00;;;;;;5078334;28;20028;-76
2024/01/08 02:18:43;;;;;;;1.55;1.35;;;-0.10;1.00;;;;;;5078460;28;20048;-77
2024/01/08 02:21:10;;;;;;;0.00;0.00;;;-0.10;1.00;;;;;;5079454;28;20058;-77
2024/01/08 02:23:36;;;;;;;0.10;0.10;;;-0.10;1.00;;;;;;5079794;28;20032;-77
2024/01/08 02:26:02;;;;;;;0.40;0.40;;;-0.10;1.00;;;;;;5077661;28;20032;-76
2024/01/08 02:28:28;;;;;;;0.10;0.10;;;-0.10;1.00;;;;;;5080804;28;20024;-79
2024/01/08 02:30:57;;;;;;;0.52;0.52;;;0.00;1.00;;;;;;5083791;28;20032;-75
2024/01/08 02:33:24;;;;;;;0.00;0.00;;;-0.10;99.90;;;;;;5084910;28;20432;-78
2024/01/08 02:35:51;;;;;;;0.10;0.10;;;0.00;99.90;;;;;;5081214;28;20047;-76
2024/01/08 02:38:17;;;;;;;0.00;0.00;;;0.00;99.90;;;;;;5081018;28;20516;-77
2024/01/08 02:40:43;;;;;;;0.10;0.10;;;-0.10;1.00;;;;;;5074656;28;20037;-81
2024/01/08 02:43:09;;;;;;;0.00;0.00;;;0.00;99.90;;;;;;5084432;28;20393;-77
2024/01/08 02:45:36;;;;;;;0.05;0.05;;;0.00;99.90;;;;;;5079335;28;21003;-78
2024/01/08 02:48:02;;;;;;;2.15;0.80;;;0.00;99.90;;;;;;5077422;28;20043;-77
2024/01/08 02:50:28;;;;;;;0.10;0.10;;;0.00;99.90;;;;;;5084627;28;20028;-78
2024/01/08 02:52:54;;;;;;;0.10;0.10;;;0.00;99.90;;;;;;5079598;28;20037;-75
2024/01/08 02:55:20;;;;;;;0.25;0.25;;;0.00;99.90;;;;;;5067464;28;20037;-78
2024/01/08 02:57:47;;;;;;;0.00;0.00;;;0.00;99.90;;;;;;5075339;28;20032;-77
2024/01/08 03:00:13;;;;;;;0.00;0.00;;;0.00;99.90;;;;;;5078969;28;20279;-77
2024/01/08 03:02:39;;;;;;;0.00;0.00;;;0.00;99.90;;;;;;5077707;28;20037;-78
2024/01/08 03:05:06;;;;;;;0.20;0.20;;;0.00;99.90;;;;;;5077853;28;20028;-76
2024/01/08 03:07:32;;;;;;;0.00;0.00;;;0.00;99.90;;;;;;5076163;28;20036;-77
2024/01/08 03:09:59;;;;;;;0.10;0.10;;;0.00;99.90;;;;;;5077364;28;20047;-77
2024/01/08 03:12:25;;;;;;;0.00;0.00;;;0.00;99.90;;;;;;5076219;28;20706;-77
2024/01/08 03:14:52;;;;;;;1.00;0.75;;;0.00;99.90;;;;;;5079209;28;20035;-78
2024/01/08 03:17:18;;;;;;;0.17;0.17;;;0.00;99.90;;;;;;5073088;28;20031;-78
2024/01/08 03:19:44;;;;;;;0.10;0.10;;;0.00;99.90;;;;;;5080858;28;20055;-78
2024/01/08 03:22:11;;;;;;;0.00;0.00;;;0.00;99.90;;;;;;5080018;28;20047;-78
2024/01/08 03:24:37;;;;;;;0.08;0.08;;;-0.10;99.90;;;;;;5077442;28;20396;-77
2024/01/08 03:27:04;;;;;;;0.10;0.10;;;0.00;99.90;;;;;;5069822;28;20028;-77
2024/01/08 03:29:30;;;;;;;0.10;0.10;;;0.00;99.90;;;;;;5078503;28;20036;-77
2024/01/08 03:31:56;;;;;;;0.10;0.10;;;0.00;99.90;;;;;;5080164;28;20475;-77
2024/01/08 03:34:22;;;;;;;0.75;0.30;;;-0.10;99.90;;;;;;5079784;28;20032;-77
2024/01/08 03:36:49;;;;;;;0.00;0.00;;;0.00;99.90;;;;;;5081598;28;20048;-77
2024/01/08 03:39:16;;;;;;;0.05;0.05;;;0.00;99.90;;;;;;5080920;28;20032;-77
2024/01/08 03:41:42;;;;;;;0.05;0.05;;;0.00;99.90;;;;;;5082558;28;20041;-76
2024/01/08 03:44:09;;;;;;;0.20;0.20;;;0.00;99.90;;;;;;5080033;28;20032;-77
2024/01/08 03:46:39;;;;;;;0.10;0.10;;;0.00;99.90;;;;;;5082975;28;20480;-78
2024/01/08 03:49:05;;;;;;;0.00;0.00;;;0.00;99.90;;;;;;5081993;28;20039;-77
2024/01/08 03:51:31;;;;;;;0.05;0.05;;;0.00;99.90;;;;;;5080513;28;20055;-77
2024/01/08 03:53:57;;;;;;;0.03;0.03;;;0.00;99.90;;;;;;5081387;28;20028;-78
2024/01/08 03:56:23;;;;;;;0.60;0.30;;;0.00;99.90;;;;;;5077590;28;20598;-77
2024/01/08 03:58:50;;;;;;;0.30;0.30;;;0.00;99.90;;;;;;5079477;28;20024;-77
2024/01/08 04:01:16;;;;;;;0.68;0.68;;;0.00;99.90;;;;;;5082401;28;20075;-76
2024/01/08 04:03:42;;;;;;;0.00;0.00;;;0.00;99.90;;;;;;5069021;28;20040;-78
2024/01/08 04:06:08;;;;;;;0.30;0.30;;;-0.10;99.90;;;;;;5078771;28;20854;-75
2024/01/08 04:08:34;;;;;;;0.47;0.35;;;0.00;99.90;;;;;;5080821;28;20388;-75
2024/01/08 04:11:01;;;;;;;0.10;0.08;;;0.00;99.90;;;;;;5079062;28;20043;-76
2024/01/08 04:13:27;;;;;;;0.00;0.00;;;0.00;99.90;;;;;;5081834;28;20028;-76
2024/01/08 04:15:53;;;;;;;0.00;0.00;;;0.00;99.90;;;;;;5063066;28;20044;-74
2024/01/08 04:18:19;;;;;;;0.08;0.08;;;0.00;99.90;;;;;;5084030;28;20029;-76
2024/01/08 04:20:45;;;;;;;0.75;0.75;;;0.00;99.90;;;;;;5082526;28;20048;-76
2024/01/08 04:23:11;;;;;;;0.10;0.10;;;0.00;99.90;;;;;;5066587;28;20036;-76
2024/01/08 04:25:38;;;;;;;0.05;0.05;;;0.00;99.90;;;;;;5079491;28;20028;-74
2024/01/08 04:28:04;;;;;;;0.00;0.00;;;0.00;99.90;;;;;;5084777;28;20043;-75
2024/01/08 04:30:30;;;;;;;0.05;0.05;;;0.00;99.90;;;;;;5082101;28;20047;-76
2024/01/08 04:32:57;;;;;;;0.20;0.20;;;0.00;99.90;;;;;;5078786;28;20393;-74
2024/01/08 04:35:23;;;;;;;1.30;0.98;;;-0.10;99.90;;;;;;5078808;28;20025;-75
2024/01/08 04:37:49;;;;;;;0.63;0.30;;;0.00;99.90;;;;;;5083220;28;20052;-76
2024/01/08 04:40:15;;;;;;;0.73;0.73;;;-0.10;99.90;;;;;;5084762;28;20645;-76
2024/01/08 04:42:41;;;;;;;0.10;0.10;;;-0.10;99.90;;;;;;5080835;28;20033;-76
2024/01/08 04:45:08;;;;;;;0.00;0.00;;;0.00;99.90;;;;;;5083111;28;20035;-75
2024/01/08 04:47:34;;;;;;;0.00;0.00;;;0.00;99.90;;;;;;5078352;28;20047;-76
2024/01/08 04:50:00;;;;;;;0.00;0.00;;;0.00;99.90;;;;;;5081305;28;20043;-76
2024/01/08 04:52:26;;;;;;;0.10;0.10;;;-0.10;99.90;;;;;;5079991;28;20044;-75
2024/01/08 04:54:52;;;;;;;0.00;0.00;;;-0.10;99.90;;;;;;5079808;28;20032;-76
2024/01/08 04:57:19;;;;;;;0.20;0.20;;;-0.10;99.90;;;;;;5066585;28;20461;-76
2024/01/08 04:59:45;;;;;;;0.10;0.10;;;-0.10;99.90;;;;;;5085017;28;20024;-75
2024/01/08 05:02:12;;;;;;;0.10;0.10;;;-0.10;99.90;;;;;;5078747;28;20036;-75
2024/01/08 05:04:38;;;;;;;0.00;0.00;;;-0.10;99.90;;;;;;5077646;28;20055;-76
2024/01/08 05:07:04;;;;;;;0.00;0.00;;;-0.20;99.90;;;;;;5060729;28;20060;-77
2024/01/08 05:09:30;;;;;;;0.00;0.00;;;-0.20;99.90;;;;;;5083668;28;20032;-77
2024/01/08 05:11:57;;;;;;;0.10;0.10;;;-0.20;99.90;;;;;;5087373;28;20035;-74
2024/01/08 05:14:23;;;;;;;0.00;0.00;;;-0.20;99.90;;;;;;5079255;28;20041;-76
2024/01/08 05:16:49;;;;;;;0.03;0.03;;;-0.20;99.90;;;;;;5080912;28;20421;-77
2024/01/08 05:19:16;;;;;;;0.30;0.30;;;-0.30;99.90;;;;;;5078557;28;20095;-77
2024/01/08 05:21:42;;;;;;;0.00;0.00;;;-0.30;99.90;;;;;;5079332;28;20051;-76
2024/01/08 05:24:08;;;;;;;0.20;0.20;;;-0.30;99.90;;;;;;5083521;28;20039;-76
2024/01/08 05:26:34;;;;;;;0.00;0.00;;;-0.30;99.90;;;;;;5075845;28;20036;-75
2024/01/08 05:29:00;;;;;;;2.83;0.80;;;-0.30;99.90;;;;;;5064251;28;20044;-75
2024/01/08 05:31:27;;;;;;;0.00;0.00;;;-0.30;99.90;;;;;;5080869;28;20045;-77
2024/01/08 05:33:53;;;;;;;2.53;0.52;;;-0.30;99.90;;;;;;5079487;28;20041;-76
2024/01/08 05:36:19;;;;;;;0.10;0.10;;;-0.20;99.90;;;;;;5080934;28;20055;-75
2024/01/08 05:38:45;;;;;;;1.35;1.25;;;-0.30;99.90;;;;;;5079566;28;20067;-76
2024/01/08 05:41:11;;;;;;;0.03;0.03;;;-0.30;99.90;;;;;;5082704;28;20043;-77
2024/01/08 05:43:37;;;;;;;0.50;0.50;;;-0.30;99.90;;;;;;5080161;28;20032;-75
2024/01/08 05:46:07;;;;;;;0.20;0.10;;;-0.30;99.90;;;;;;5077158;28;20068;-76
2024/01/08 05:48:37;;;;;;;0.03;0.03;;;-0.30;99.90;;;;;;5076613;28;20039;-76
2024/01/08 05:51:07;;;;;;;0.10;0.10;;;-0.30;99.90;;;;;;5077749;28;20027;-76
2024/01/08 05:53:34;;;;;;;0.00;0.00;;;-0.20;99.90;;;;;;5060923;28;20043;-77
2024/01/08 05:56:00;;;;;;;0.00;0.00;;;-0.30;99.90;;;;;;5077679;28;20024;-77
2024/01/08 05:58:26;;;;;;;0.00;0.00;;;-0.30;99.90;;;;;;5077835;28;20448;-76
2024/01/08 06:00:57;;;;;;;0.00;0.00;;;-0.30;99.90;;;;;;5081902;28;20055;-76
2024/01/08 06:03:23;;;;;;;0.07;0.07;;;-0.30;99.90;;;;;;5081897;28;20471;-77
2024/01/08 06:05:50;;;;;;;0.00;0.00;;;-0.40;99.90;;;;;;5078019;28;20024;-77
2024/01/08 06:08:16;;;;;;;0.10;0.10;;;-0.30;99.90;;;;;;5071611;28;20032;-77
2024/01/08 06:10:43;;;;;;;0.20;0.20;;;-0.30;99.90;;;;;;5078343;28;20036;-77
2024/01/08 06:13:10;;;;;;;0.20;0.20;;;-0.30;99.90;;;;;;5080082;28;20031;-76
2024/01/08 06:15:37;;;;;;;0.10;0.10;;;-0.30;99.90;;;;;;5081720;28;20036;-75
2024/01/08 06:18:04;;;;;;;0.38;0.38;;;-0.20;99.90;;;;;;5076985;28;20048;-75
2024/01/08 06:20:31;;;;;;;0.00;0.00;;;-0.20;99.90;;;;;;5086577;28;20024;-77
2024/01/08 06:22:57;;;;;;;0.00;0.00;;;-0.20;99.90;;;;;;5077873;28;20952;-74
2024/01/08 06:25:23;;;;;;;0.05;0.05;;;-0.10;99.90;;;;;;5075335;28;20048;-77
2024/01/08 06:27:49;;;;;;;0.00;0.00;;;-0.30;99.90;;;;;;5077265;28;20764;-77
2024/01/08 06:30:17;;;;;;;0.00;0.00;;;-0.30;99.90;;;;;;5079131;28;20543;-77
2024/01/08 06:32:44;;;;;;;0.00;0.00;;;-0.30;99.90;;;;;;5078548;28;20040;-76
2024/01/08 06:35:10;;;;;;;0.10;0.10;;;-0.30;99.90;;;;;;5076482;28;20047;-77
2024/01/08 06:37:36;;;;;;;1.55;0.98;;;-0.30;99.90;;;;;;5078826;28;20052;-75
2024/01/08 06:40:03;;;;;;;0.10;0.10;;;-0.30;99.90;;;;;;5079567;28;20028;-76
2024/01/08 06:42:29;;;;;;;0.00;0.00;;;-0.30;99.90;;;;;;5079281;28;20394;-75
2024/01/08 06:44:56;;;;;;;0.00;0.00;;;-0.30;99.90;;;;;;5078773;28;20383;-74
2024/01/08 06:47:22;;;;;;;0.03;0.03;;;-0.30;99.90;;;;;;5058478;28;20090;-76
2024/01/08 06:49:48;;;;;;;0.88;0.85;;;-0.30;99.90;;;;;;5073943;28;20048;-77
2024/01/08 06:52:14;;;;;;;0.00;0.00;;;-0.30;99.90;;;;;;5078165;28;20202;-74
2024/01/08 06:54:40;;;;;;;0.00;0.00;;;-0.30;99.90;;;;;;5070171;28;20024;-76
2024/01/08 06:57:07;;;;;;;0.47;0.47;;;-0.20;99.90;;;;;;5078976;28;20036;-75
2024/01/08 06:59:33;;;;;;;1.65;0.47;;;-0.20;99.90;;;;;;5074264;28;20051;-78
2024/01/08 07:01:59;;;;;;;0.00;0.00;;;-0.20;99.90;;;;;;5080213;28;20049;-76
2024/01/08 07:04:25;;;;;;;0.63;0.63;;;-0.20;99.90;;;;;;5079758;28;20434;-77
2024/01/08 07:06:51;;;;;;;0.00;0.00;;;-0.20;99.90;;;;;;5079909;28;20047;-76
2024/01/08 07:09:17;;;;;;;0.00;0.00;;;-0.20;99.90;;;;;;5079182;28;20051;-78
2024/01/08 07:11:44;;;;;;;0.10;0.10;;;-0.20;99.90;;;;;;5061922;28;20037;-79
2024/01/08 07:14:10;;;;;;;0.00;0.00;;;-0.20;99.90;;;;;;5083419;28;20038;-78
2024/01/08 07:16:36;;;;;;;0.10;0.10;;;-0.30;99.90;;;;;;5080752;28;20044;-78
2024/01/08 07:19:03;;;;;;;0.00;0.00;;;-0.30;99.90;;;;;;5081449;28;20028;-84
2024/01/08 07:21:29;;;;;;;0.10;0.10;;;-0.30;99.90;;;;;;5081052;28;20067;-81
2024/01/08 07:23:55;;;;;;;0.10;0.10;;;-0.30;99.90;;;;;;5080776;28;20043;-77
2024/01/08 07:26:21;;;;;;;0.00;0.00;;;-0.30;99.90;;;;;;5080934;28;20036;-79
2024/01/08 07:28:48;;;;;;;0.57;0.57;;;-0.30;99.90;;;;;;5081286;28;20032;-81
2024/01/08 07:31:17;;;;;;;0.00;0.00;;;-0.30;99.90;;;;;;5080442;28;20028;-81
2024/01/08 07:33:43;;;;;;;0.75;0.75;;;-0.30;99.90;;;;;;5086509;28;20024;-79
2024/01/08 07:36:10;;;;;;;0.63;0.57;;;-0.30;99.90;;;;;;5086692;28;20393;-79
2024/01/08 07:38:39;;;;;;;0.00;0.00;;;-0.30;99.90;;;;;;5086263;28;20048;-79
2024/01/08 07:41:08;;;;;;;0.00;0.00;;;-0.30;99.90;;;;;;5089172;28;20063;-80
2024/01/08 07:43:37;;;;;;;1.67;0.28;;;-0.30;99.90;;;;;;5088660;28;20039;-80
2024/01/08 07:46:03;;;;;;;0.10;0.10;;;-0.20;99.90;;;;;;5091067;28;20028;-80
2024/01/08 07:48:30;;;;;;;0.75;0.50;;;-0.30;99.90;;;;;;5090137;28;20035;-81
2024/01/08 07:50:56;;;;;;;0.40;0.28;;;-0.20;99.90;;;;;;5080744;28;20027;-79
2024/01/08 07:53:22;;;;;;;0.00;0.00;;;-0.20;99.90;;;;;;5086766;28;20029;-80
2024/01/08 07:55:49;;;;;;;1.52;1.30;;;-0.20;99.90;;;;;;5073775;28;20033;-82
2024/01/08 07:58:15;;;;;;;0.00;0.00;;;-0.20;99.90;;;;;;5088348;28;20027;-80
2024/01/08 08:00:42;;;;;;;0.10;0.10;;;-0.20;99.90;;;;;;5089888;28;20025;-78
2024/01/08 08:03:08;;;;;;;0.05;0.05;;;-0.20;99.90;;;;;;5087060;28;20046;-77
2024/01/08 08:05:35;;;;;;;0.10;0.10;;;-0.20;99.90;;;;;;5074672;28;20043;-81
2024/01/08 08:08:01;;;;;;;0.25;0.25;;;-0.20;99.90;;;;;;5089709;28;20060;-80
2024/01/08 08:10:27;;;;;;;0.20;0.20;;;-0.20;99.90;;;;;;5085043;28;20028;-78
2024/01/08 08:12:54;;;;;;;0.43;0.43;;;-0.20;99.90;;;;;;5086963;28;20029;-78
2024/01/08 08:15:21;;;;;;;1.08;0.65;;;-0.20;99.90;;;;;;5083825;28;20480;-81
2024/01/08 08:17:47;;;;;;;5.68;0.47;;;-0.20;99.90;;;;;;5084445;28;20039;-79
2024/01/08 08:20:13;;;;;;;0.68;0.68;;;-0.20;99.90;;;;;;5068330;28;20457;-77
2024/01/08 08:22:39;;;;;;;0.00;0.00;;;-0.20;99.90;;;;;;5087984;28;20043;-77
2024/01/08 08:25:06;;;;;;;0.05;0.05;;;-0.20;99.90;;;;;;5083780;28;20047;-78
2024/01/08 08:27:32;;;;;;;0.10;0.10;;;-0.20;99.90;;;;;;5089235;28;20025;-78
2024/01/08 08:29:58;;;;;;;0.38;0.38;;;-0.20;99.90;;;;;;5086437;28;20361;-79
2024/01/08 08:32:25;;;;;;;0.10;0.10;;;-0.20;99.90;;;;;;5090635;28;20055;-79
2024/01/08 08:34:51;;;;;;;0.00;0.00;;;-0.20;99.90;;;;;;5085216;28;20040;-78
2024/01/08 08:37:17;;;;;;;2.20;1.35;;;-0.20;99.90;;;;;;5074087;28;20502;-77
2024/01/08 08:39:43;;;;;;;0.20;0.20;;;-0.20;99.90;;;;;;5070560;28;20036;-78
2024/01/08 08:42:09;;;;;;;0.30;0.30;;;-0.20;99.90;;;;;;5068266;28;20048;-79
2024/01/08 08:44:37;;;;;;;0.93;0.93;;;-0.20;99.90;;;;;;5064728;28;20059;-80
2024/01/08 08:47:03;;;;;;;0.30;0.30;;;-0.20;99.90;;;;;;5071003;28;20024;-79
2024/01/08 08:49:29;;;;;;;0.00;0.00;;;-0.20;99.90;;;;;;5048765;28;20040;-78
2024/01/08 08:51:56;;;;;;;1.30;0.40;;;-0.20;99.90;;;;;;5069755;28;20044;-76
2024/01/08 08:54:23;;;;;;;0.10;0.10;;;-0.20;99.90;;;;;;5066109;28;20036;-76
2024/01/08 08:56:49;;;;;;;0.68;0.68;;;-0.20;99.90;;;;;;5066668;28;20039;-77
2024/01/08 08:59:15;;;;;;;0.00;0.00;;;-0.20;99.90;;;;;;5068406;28;20033;-82
2024/01/08 09:01:41;;;;;;;0.22;0.22;;;-0.20;99.90;;;;;;5071061;28;20120;-79
2024/01/08 09:04:07;;;;;;;0.45;0.45;;;-0.20;99.90;;;;;;5066633;28;20035;-78
2024/01/08 09:06:34;;;;;;;0.80;0.80;;;-0.20;99.90;;;;;;5081261;28;20036;-78
2024/01/08 09:09:02;;;;;;;0.10;0.10;;;-0.20;99.90;;;;;;5064315;28;20036;-78
2024/01/08 09:11:28;;;;;;;0.05;0.05;;;-0.20;99.90;;;;;;5062155;28;20072;-79
2024/01/08 09:13:54;;;;;;;0.10;0.10;;;-0.20;99.90;;;;;;5059219;28;20032;-78
2024/01/08 09:16:22;;;;;;;0.82;0.60;;;-0.30;99.90;;;;;;5064232;28;20028;-77
2024/01/08 09:18:49;;;;;;;0.10;0.10;;;-0.20;99.90;;;;;;5057104;28;20035;-77
2024/01/08 09:21:15;;;;;;;0.38;0.38;;;-0.20;99.90;;;;;;5059492;28;20028;-76
2024/01/08 09:23:42;;;;;;;0.63;0.20;;;-0.20;99.90;;;;;;5062791;28;20033;-78
2024/01/08 09:26:09;;;;;;;0.00;0.00;;;-0.20;99.90;;;;;;5061495;28;20039;-79
2024/01/08 09:28:35;;;;;;;0.45;0.45;;;-0.20;99.90;;;;;;5032024;28;20068;-81
2024/01/08 09:31:03;;;;;;;0.68;0.50;;;-0.10;99.90;;;;;;5069175;28;20034;-80
2024/01/08 09:33:29;;;;;;;0.85;0.57;;;-0.20;99.90;;;;;;5063511;28;20048;-76
2024/01/08 09:35:56;;;;;;;0.00;0.00;;;-0.20;99.90;;;;;;5063978;28;20055;-77
2024/01/08 09:38:22;;;;;;;0.00;0.00;;;-0.20;99.90;;;;;;5079395;28;20036;-78
2024/01/08 09:40:49;;;;;;;0.20;0.20;;;-0.30;99.90;;;;;;5077708;28;20029;-77
2024/01/08 09:43:15;;;;;;;1.25;0.38;;;-0.40;99.90;;;;;;5081294;28;20254;-82
2024/01/08 09:46:00;;;;;;;5.28;0.75;;;-0.50;99.90;;;;;;5080308;28;20457;-76
2024/01/08 09:48:27;;;;;;;0.30;0.20;;;-0.50;99.90;;;;;;5078082;28;20043;-76
2024/01/08 09:50:54;;;;;;;0.13;0.13;;;-0.50;99.90;;;;;;5080452;28;20852;-78
2024/01/08 09:53:20;;;;;;;1.00;0.57;;;-0.50;99.90;;;;;;5080572;28;20041;-76
2024/01/08 09:55:48;;;;;;;1.00;0.90;;;-0.50;99.90;;;;;;5079938;28;20484;-76
2024/01/08 09:58:15;;;;;;;0.00;0.00;;;-0.50;99.90;;;;;;5082427;28;20429;-77
2024/01/08 10:00:44;;;;;;;0.00;0.00;;;-0.60;99.90;;;;;;5080115;28;20028;-78
2024/01/08 10:03:12;;;;;;;0.10;0.10;;;-0.60;99.90;;;;;;5076706;28;20051;-77
2024/01/08 10:05:39;;;;;;;0.80;0.80;;;-0.60;99.90;;;;;;5082221;28;20032;-77
2024/01/08 10:08:05;;;;;;;0.35;0.35;;;-0.60;99.90;;;;;;5076323;28;20477;-78
2024/01/08 10:10:32;;;;;;;0.80;0.60;;;-0.60;99.90;;;;;;5083007;28;20039;-75
2024/01/08 10:12:59;;;;;;;0.10;0.10;;;-0.70;99.90;;;;;;5079334;28;20032;-77
2024/01/08 10:15:27;;;;;;;0.63;0.63;;;-0.70;99.90;;;;;;5079172;28;20036;-76
2024/01/08 10:17:55;;;;;;;0.17;0.17;;;-0.70;99.90;;;;;;5077901;28;20032;-76
2024/01/08 10:20:21;;;;;;;1.17;0.50;;;-0.80;99.90;;;;;;5083385;28;20033;-77
2024/01/08 10:23:24;;;;;;;0.75;0.20;;;-0.80;99.90;;;;;;5078385;28;20040;-78
2024/01/08 10:25:51;;;;;;;0.00;0.00;;;-0.80;99.90;;;;;;5061338;28;20048;-78
2024/01/08 10:28:20;;;;;;;0.10;0.10;;;-0.70;99.90;;;;;;5085730;28;20059;-77
2024/01/08 10:30:47;;;;;;;1.23;1.17;;;-0.60;99.90;;;;;;5086886;28;20033;-79
2024/01/08 10:33:16;;;;;;;0.00;0.00;;;-0.60;99.90;;;;;;5081040;28;20028;-77
2024/01/08 10:35:42;;;;;;;2.35;0.68;;;-0.50;99.90;;;;;;5062357;28;20039;-77
2024/01/08 10:38:09;;;;;;;0.00;0.00;;;-0.50;99.90;;;;;;5077056;28;20040;-77
2024/01/08 10:40:35;;;;;;;0.28;0.20;;;-0.40;99.90;;;;;;5044858;28;20048;-78
2024/01/08 10:43:02;;;;;;;0.25;0.25;;;-0.40;99.90;;;;;;5083902;28;20040;-74
2024/01/08 10:45:28;;;;;;;0.05;0.05;;;-0.40;99.90;;;;;;5074066;28;20040;-77
2024/01/08 10:48:18;;;;;;;0.60;0.60;;;-0.50;99.90;;;;;;5071959;28;20083;-76
2024/01/08 10:50:46;;;;;;;0.00;0.00;;;-0.50;99.90;;;;;;5088402;28;20473;-77
2024/01/08 10:53:37;;;;;;;1.48;1.23;;;-0.50;99.90;;;;;;5086644;28;20028;-76
2024/01/08 10:56:07;;;;;;;0.32;0.32;;;-0.60;99.90;;;;;;5083864;28;20044;-76
2024/01/08 10:58:36;;;;;;;1.15;0.60;;;-0.50;99.90;;;;;;5082218;28;20096;-78
2024/01/08 11:01:03;;;;;;;0.85;0.60;;;-0.60;99.90;;;;;;5083329;28;20032;-78
2024/01/08 11:03:30;;;;;;;2.20;0.47;;;-0.60;99.90;;;;;;5082462;28;20032;-77
2024/01/08 11:05:58;;;;;;;0.15;0.15;;;-0.60;99.90;;;;;;5079022;28;20489;-76
2024/01/08 11:08:25;;;;;;;0.55;0.55;;;-0.60;99.90;;;;;;5081579;28;20037;-75
2024/01/08 11:10:51;;;;;;;3.42;1.20;;;-0.60;99.90;;;;;;5082021;28;20469;-74
2024/01/08 11:13:18;;;;;;;0.15;0.15;;;-0.50;99.90;;;;;;5083817;28;20028;-76
2024/01/08 11:15:45;;;;;;;0.68;0.63;;;-0.40;99.90;;;;;;5082734;28;20032;-76
2024/01/08 11:18:27;;;;;;;0.30;0.25;;;-0.50;99.90;;;;;;5084608;28;20036;-76
2024/01/08 11:20:56;;;;;;;0.22;0.17;;;-0.60;99.90;;;;;;5084812;28;20039;-76
2024/01/08 11:23:34;;;;;;;11.25;2.58;;;-0.60;99.90;;;;;;5070927;28;20040;-75
2024/01/08 11:26:03;;;;;;;2.72;2.38;;;-0.40;99.90;;;;;;5080839;28;20040;-74
2024/01/08 11:28:31;;;;;;;2.97;1.67;;;-0.40;99.90;;;;;;5083299;28;20031;-75
2024/01/08 11:31:24;;;;;;;0.20;0.20;;;-0.30;99.90;;;;;;5083340;28;20036;-74
2024/01/08 11:34:26;;;;;;;0.13;0.13;;;-0.20;99.90;;;;;;5083022;28;20048;-75
2024/01/08 11:37:20;;;;;;;1.20;0.43;;;-0.20;99.90;;;;;;5010088;28;20051;-75
2024/01/08 11:39:50;;;;;;;0.85;0.40;;;-0.10;99.90;;;;;;5063309;28;20052;-74
2024/01/08 11:42:18;;;;;;;0.00;0.00;;;-0.20;99.90;;;;;;5062102;28;20052;-75
2024/01/08 11:44:44;;;;;;;0.65;0.65;;;-0.30;99.90;;;;;;5062926;28;20025;-75
2024/01/08 11:47:10;;;;;;;0.00;0.00;;;-0.30;99.90;;;;;;5053568;28;20045;-75
2024/01/08 11:49:37;;;;;;;0.45;0.45;;;-0.30;99.90;;;;;;5060695;28;20481;-74
2024/01/08 11:52:05;;;;;;;0.10;0.10;;;-0.30;99.90;;;;;;5063626;28;20473;-75
2024/01/08 11:54:32;;;;;;;0.10;0.10;;;-0.30;99.90;;;;;;5061208;28;20037;-77
2024/01/08 11:56:58;;;;;;;0.30;0.30;;;-0.20;99.90;;;;;;5064152;28;20055;-77
2024/01/08 11:59:35;;;;;;;0.20;0.20;;;-0.30;99.90;;;;;;5060491;28;20487;-77
2024/01/08 12:02:15;;;;;;;2.05;0.50;;;-0.30;99.90;;;;;;5061370;28;20041;-76
2024/01/08 12:04:42;;;;;;;0.10;0.10;;;-0.30;99.90;;;;;;5065478;28;20028;-76
2024/01/08 12:07:12;;;;;;;0.20;0.00;;;-0.30;99.90;;;;;;5062279;28;20052;-75
2024/01/08 12:09:39;;;;;;;0.20;0.20;;;-0.40;99.90;;;;;;5063399;28;20032;-75
2024/01/08 12:12:07;;;;;;;0.20;0.20;;;-0.40;99.90;;;;;;5061090;28;20118;-75
2024/01/08 12:14:34;;;;;;;0.08;0.08;;;-0.50;99.90;;;;;;5058136;28;20044;-77
2024/01/08 12:17:04;;;;;;;0.10;0.10;;;-0.60;99.90;;;;;;5063097;28;20395;-74
2024/01/08 12:19:42;;;;;;;0.45;0.45;;;-0.50;99.90;;;;;;5037980;28;20378;-75
2024/01/08 12:22:11;;;;;;;0.15;0.15;;;-0.70;99.90;;;;;;5057746;28;20048;-77
2024/01/08 12:24:42;;;;;;;0.35;0.35;;;-0.70;99.90;;;;;;5066358;28;20036;-76
2024/01/08 12:27:08;;;;;;;;;;;-0.70;99.90;;;;;;5064329;28;20036;-76
2024/01/08 12:29:41;;;;;;;0.20;0.20;;;-0.60;99.90;;;;;;5069467;28;19915;-75
2024/01/08 12:32:13;;;;;;;0.25;0.25;;;-0.60;99.90;;;;;;5041109;28;20049;-76
2024/01/08 12:34:40;;;;;;;0.10;0.10;;;-0.60;99.90;;;;;;5061259;28;20524;-75
2024/01/08 12:37:08;;;;;;;0.17;0.17;;;-0.50;99.90;;;;;;5072886;28;20056;-76
2024/01/08 12:39:35;;;;;;;0.20;0.20;;;-0.50;99.90;;;;;;5082475;28;20032;-76
2024/01/08 12:42:15;;;;;;;1.27;1.15;;;-0.40;99.90;;;;;;5088032;28;20039;-75
2024/01/08 12:44:43;;;;;;;0.00;0.00;;;-0.30;99.90;;;;;;5081664;28;20042;-76
2024/01/08 12:47:09;;;;;;;0.10;0.10;;;-0.20;99.90;;;;;;5079696;28;20028;-74
2024/01/08 12:49:36;;;;;;;0.20;0.20;;;-0.20;99.90;;;;;;5084103;28;20048;-75
2024/01/08 12:52:03;;;;;;;0.10;0.10;;;-0.20;99.90;;;;;;5088506;28;20037;-75